Time;durP1;ratioP1;P1;durP2;ratioP2;P2;SDS_P1;SDS_P2;PMS_P1;PMS_P2;Temp;Humidity;BMP_temperature;BMP_pressure;BME280_temperature;BME280_humidity;BME280_pressure;Samples;Min_cycle;Max_cycle;Signal;HPM_P1;HPM_P2
2022/05/02 00:00:20;;;;;;;11.87;8.77;;;8.80;93.20;;;;;;4973815;28;20484;-76
2022/05/02 00:02:50;;;;;;;10.77;9.00;;;8.80;93.20;;;;;;4974007;28;20858;-76
2022/05/02 00:05:18;;;;;;;12.77;8.40;;;8.80;93.20;;;;;;4989411;28;20467;-76
2022/05/02 00:07:46;;;;;;;10.67;8.53;;;8.80;93.20;;;;;;5012857;28;20451;-76
2022/05/02 00:10:15;;;;;;;12.50;8.97;;;8.80;93.30;;;;;;5008833;28;20524;-76
2022/05/02 00:12:43;;;;;;;12.57;9.13;;;8.80;93.30;;;;;;5012757;28;20847;-76
2022/05/02 00:15:12;;;;;;;11.50;8.93;;;8.70;93.30;;;;;;5011836;28;20941;-76
2022/05/02 00:17:59;;;;;;;10.40;8.13;;;8.70;93.40;;;;;;5011254;28;20452;-76
2022/05/02 00:20:31;;;;;;;10.33;8.17;;;8.80;93.50;;;;;;5008308;28;20480;-76
2022/05/02 00:23:00;;;;;;;10.90;9.00;;;8.70;93.50;;;;;;5011216;28;20443;-76
2022/05/02 00:25:30;;;;;;;10.20;7.80;;;8.80;93.50;;;;;;5011120;28;20539;-76
2022/05/02 00:27:58;;;;;;;10.63;8.60;;;8.80;93.50;;;;;;5012420;28;20440;-76
2022/05/02 00:30:27;;;;;;;11.80;10.27;;;8.80;93.60;;;;;;5010890;28;20468;-76
2022/05/02 00:32:56;;;;;;;10.87;8.60;;;8.80;93.90;;;;;;5012263;28;20455;-76
2022/05/02 00:35:25;;;;;;;11.00;9.10;;;8.70;93.60;;;;;;5027729;28;20496;-76
2022/05/02 00:37:55;;;;;;;11.70;9.63;;;8.80;93.70;;;;;;5012114;28;20439;-76
2022/05/02 00:40:24;;;;;;;10.93;8.70;;;8.70;93.70;;;;;;4992748;28;20479;-76
2022/05/02 00:42:52;;;;;;;11.47;9.30;;;8.70;93.70;;;;;;4991259;28;20532;-76
2022/05/02 00:45:21;;;;;;;10.70;8.70;;;8.70;93.80;;;;;;5009536;28;20463;-76
2022/05/02 00:47:51;;;;;;;11.10;8.90;;;8.70;93.80;;;;;;5011017;28;20491;-76
2022/05/02 00:50:31;;;;;;;10.60;8.90;;;8.70;93.80;;;;;;5011073;28;20472;-77
2022/05/02 00:53:01;;;;;;;11.63;9.23;;;8.70;93.80;;;;;;5010897;28;20530;-77
2022/05/02 00:55:30;;;;;;;11.83;9.73;;;8.70;93.80;;;;;;5010921;28;20448;-77
2022/05/02 00:57:59;;;;;;;12.97;9.00;;;8.70;93.80;;;;;;5013225;28;20451;-78
2022/05/02 01:00:28;;;;;;;12.03;9.17;;;8.70;93.90;;;;;;5007109;28;20505;-78
2022/05/02 01:02:56;;;;;;;12.37;9.00;;;8.70;93.90;;;;;;4996889;28;20466;-78
2022/05/02 01:05:25;;;;;;;11.67;9.67;;;8.70;94.00;;;;;;5011385;28;20455;-78
2022/05/02 01:07:52;;;;;;;12.93;9.33;;;8.60;94.00;;;;;;5011538;28;20455;-78
2022/05/02 01:10:23;;;;;;;10.23;8.40;;;8.60;94.00;;;;;;5011348;28;20563;-78
2022/05/02 01:12:52;;;;;;;11.10;8.93;;;8.60;94.10;;;;;;5011019;28;20998;-77
2022/05/02 01:15:20;;;;;;;11.70;9.13;;;8.60;94.10;;;;;;5012469;28;20451;-78
2022/05/02 01:17:48;;;;;;;12.07;8.60;;;8.60;94.10;;;;;;4994278;28;20473;-78
2022/05/02 01:20:18;;;;;;;10.87;9.00;;;8.60;94.10;;;;;;4991576;28;20501;-78
2022/05/02 01:22:46;;;;;;;10.93;8.90;;;8.60;94.20;;;;;;4992965;28;20439;-78
2022/05/02 01:25:14;;;;;;;14.03;8.80;;;8.60;94.20;;;;;;4993158;28;20488;-78
2022/05/02 01:27:44;;;;;;;11.40;9.10;;;8.60;94.20;;;;;;4991624;28;20453;-78
2022/05/02 01:30:13;;;;;;;11.97;8.53;;;8.60;94.20;;;;;;4992906;28;20468;-78
2022/05/02 01:32:41;;;;;;;11.20;9.60;;;8.50;94.20;;;;;;4989736;28;20456;-79
2022/05/02 01:35:11;;;;;;;12.00;9.47;;;8.60;94.20;;;;;;4997657;28;20510;-78
2022/05/02 01:37:41;;;;;;;11.00;8.87;;;8.60;94.30;;;;;;5006315;28;20452;-78
2022/05/02 01:40:10;;;;;;;11.77;9.87;;;8.50;94.20;;;;;;4991379;28;20504;-78
2022/05/02 01:42:38;;;;;;;11.17;9.10;;;8.50;94.20;;;;;;5007814;28;20452;-77
2022/05/02 01:45:07;;;;;;;12.60;8.97;;;8.50;94.20;;;;;;4993225;28;20480;-78
2022/05/02 01:47:35;;;;;;;10.93;9.23;;;8.50;94.30;;;;;;4991237;28;20453;-77
2022/05/02 01:50:04;;;;;;;13.50;8.67;;;8.50;94.30;;;;;;5007172;28;20475;-77
2022/05/02 01:52:32;;;;;;;12.17;9.03;;;8.50;94.30;;;;;;4991298;28;21003;-77
2022/05/02 01:55:02;;;;;;;11.03;8.60;;;8.50;94.30;;;;;;4991438;28;20502;-77
2022/05/02 01:57:30;;;;;;;12.27;9.27;;;8.50;94.30;;;;;;4991276;28;20544;-77
2022/05/02 01:59:58;;;;;;;11.07;8.80;;;8.50;94.30;;;;;;5007546;28;20570;-77
2022/05/02 02:02:42;;;;;;;10.30;8.63;;;8.50;94.40;;;;;;4991066;28;20503;-77
2022/05/02 02:07:56;;;;;;;14.83;10.07;;;8.50;94.40;;;;;;5002580;28;20464;-77
2022/05/02 02:10:26;;;;;;;11.60;9.03;;;8.50;94.50;;;;;;4999582;28;20479;-77
2022/05/02 02:12:54;;;;;;;12.80;10.00;;;8.50;94.50;;;;;;4991187;28;20449;-77
2022/05/02 02:15:22;;;;;;;12.73;9.80;;;8.50;94.60;;;;;;4992339;28;20531;-77
2022/05/02 02:17:50;;;;;;;12.00;9.97;;;8.50;94.60;;;;;;4992415;28;20440;-78
2022/05/02 02:20:18;;;;;;;15.97;10.77;;;8.40;94.60;;;;;;4991229;28;20558;-77
2022/05/02 02:22:47;;;;;;;12.40;10.63;;;8.40;94.70;;;;;;4990911;28;20498;-77
2022/05/02 02:25:15;;;;;;;12.70;11.00;;;8.40;94.70;;;;;;4990995;28;20452;-77
2022/05/02 02:27:44;;;;;;;13.67;10.23;;;8.40;94.80;;;;;;4992242;28;20488;-77
2022/05/02 02:30:14;;;;;;;13.63;10.73;;;8.40;94.90;;;;;;4992134;28;20461;-77
2022/05/02 02:32:42;;;;;;;13.30;10.90;;;8.40;94.90;;;;;;4988957;28;20502;-77
2022/05/02 02:35:11;;;;;;;12.30;10.77;;;8.40;94.90;;;;;;5003083;28;20483;-77
2022/05/02 02:37:39;;;;;;;10.30;8.57;;;8.30;94.90;;;;;;5011721;28;20462;-77
2022/05/02 02:40:09;;;;;;;13.63;11.87;;;8.30;94.90;;;;;;4996578;28;20483;-77
2022/05/02 02:42:38;;;;;;;11.80;9.53;;;8.30;94.90;;;;;;4995659;28;20468;-77
2022/05/02 02:45:09;;;;;;;12.20;10.90;;;8.30;94.90;;;;;;4994426;28;20445;-77
2022/05/02 02:47:37;;;;;;;12.23;10.90;;;8.30;95.00;;;;;;4993926;28;20456;-77
2022/05/02 02:50:06;;;;;;;12.50;11.10;;;8.30;95.00;;;;;;4995444;28;20456;-77
2022/05/02 02:52:34;;;;;;;13.03;11.43;;;8.30;95.00;;;;;;4994484;28;20461;-78
2022/05/02 02:55:03;;;;;;;13.10;9.90;;;8.30;95.00;;;;;;4995425;28;20499;-78
2022/05/02 02:57:31;;;;;;;13.90;10.10;;;8.30;95.00;;;;;;4994320;28;20817;-77
2022/05/02 02:59:59;;;;;;;12.10;10.70;;;8.20;95.00;;;;;;4995266;28;21015;-79
2022/05/02 03:02:29;;;;;;;11.80;10.17;;;8.30;95.10;;;;;;4993811;28;20471;-77
2022/05/02 03:07:44;;;;;;;12.80;9.80;;;8.20;95.00;;;;;;5001150;28;20483;-77
2022/05/02 03:10:13;;;;;;;12.00;10.17;;;8.20;95.00;;;;;;5014900;28;20493;-77
2022/05/02 03:12:41;;;;;;;15.63;11.47;;;8.20;95.00;;;;;;5014571;28;20968;-77
2022/05/02 03:15:10;;;;;;;16.20;13.17;;;8.20;95.00;;;;;;5013152;28;20478;-77
2022/05/02 03:17:39;;;;;;;16.10;13.07;;;8.10;95.00;;;;;;5014341;28;20444;-77
2022/05/02 03:20:09;;;;;;;13.60;11.37;;;8.10;95.10;;;;;;5000151;28;20544;-78
2022/05/02 03:22:37;;;;;;;12.80;10.70;;;8.10;95.10;;;;;;4998884;28;20470;-77
2022/05/02 03:25:06;;;;;;;12.17;10.57;;;8.00;95.10;;;;;;5014316;28;20447;-78
2022/05/02 03:27:35;;;;;;;14.23;12.27;;;8.00;95.20;;;;;;5012892;28;20508;-77
2022/05/02 03:30:03;;;;;;;13.23;10.93;;;8.00;95.20;;;;;;5012948;28;20463;-77
2022/05/02 03:32:31;;;;;;;13.03;11.13;;;8.00;95.30;;;;;;5002505;28;20463;-77
2022/05/02 03:35:01;;;;;;;12.73;11.30;;;8.00;95.30;;;;;;4992513;28;20456;-77
2022/05/02 03:37:29;;;;;;;13.90;11.83;;;8.00;95.30;;;;;;4992519;28;20459;-77
2022/05/02 03:39:58;;;;;;;13.80;11.80;;;7.90;95.30;;;;;;4992528;28;20472;-77
2022/05/02 03:42:29;;;;;;;15.20;12.60;;;7.90;95.40;;;;;;4994061;28;20884;-77
2022/05/02 03:44:57;;;;;;;14.53;13.03;;;7.90;95.40;;;;;;4992618;28;20812;-77
2022/05/02 03:47:25;;;;;;;14.10;12.60;;;7.90;95.50;;;;;;4996907;28;20477;-76
2022/05/02 03:49:54;;;;;;;14.00;12.60;;;7.80;95.50;;;;;;5007775;28;20474;-76
2022/05/02 03:52:23;;;;;;;14.60;13.10;;;7.80;95.60;;;;;;5001823;28;20518;-76
2022/05/02 03:54:52;;;;;;;16.40;14.00;;;7.80;95.70;;;;;;4991946;28;20490;-76
2022/05/02 03:57:20;;;;;;;14.73;11.70;;;7.80;95.70;;;;;;4991907;28;20451;-76
2022/05/02 03:59:48;;;;;;;13.90;12.50;;;7.80;95.80;;;;;;4991796;28;20997;-76
2022/05/02 04:02:17;;;;;;;15.00;12.33;;;7.80;95.80;;;;;;4991708;28;20472;-77
2022/05/02 04:04:45;;;;;;;13.90;12.40;;;7.80;95.90;;;;;;4991783;28;21015;-77
2022/05/02 04:07:14;;;;;;;15.23;12.43;;;7.80;95.90;;;;;;4991818;28;20459;-77
2022/05/02 04:09:45;;;;;;;15.17;11.80;;;7.80;95.90;;;;;;5003067;28;20485;-77
2022/05/02 04:12:13;;;;;;;14.77;12.57;;;7.80;95.90;;;;;;5010650;28;20456;-77
2022/05/02 04:14:41;;;;;;;15.93;13.03;;;7.80;96.00;;;;;;5012357;28;20970;-76
2022/05/02 04:17:10;;;;;;;14.50;12.27;;;7.70;96.00;;;;;;5011133;28;20459;-76
2022/05/02 04:19:38;;;;;;;14.13;12.50;;;7.70;96.00;;;;;;5012300;28;21011;-76
2022/05/02 04:22:07;;;;;;;13.33;12.03;;;7.80;96.10;;;;;;5012323;28;20999;-76
2022/05/02 04:24:35;;;;;;;14.97;12.30;;;7.70;96.10;;;;;;5012306;28;20442;-76
2022/05/02 04:27:05;;;;;;;18.80;13.07;;;7.70;96.20;;;;;;5012202;28;20440;-76
2022/05/02 04:29:33;;;;;;;14.40;12.90;;;7.80;96.30;;;;;;5010918;28;20470;-77
2022/05/02 04:32:01;;;;;;;14.73;13.13;;;7.80;96.30;;;;;;5009289;28;20864;-76
2022/05/02 04:34:29;;;;;;;19.87;13.27;;;7.80;96.30;;;;;;5005195;28;20549;-76
2022/05/02 04:36:57;;;;;;;14.37;12.97;;;7.80;96.30;;;;;;5010843;28;20456;-76
2022/05/02 04:39:26;;;;;;;14.50;13.00;;;7.80;96.40;;;;;;5010716;28;21015;-77
2022/05/02 04:41:54;;;;;;;15.73;14.23;;;7.80;96.40;;;;;;5012072;28;20446;-76
2022/05/02 04:44:23;;;;;;;15.70;13.93;;;7.80;96.50;;;;;;5010691;28;20461;-76
2022/05/02 04:46:52;;;;;;;16.10;14.50;;;7.80;96.50;;;;;;5010727;28;20455;-76
2022/05/02 04:49:20;;;;;;;16.73;14.57;;;7.80;96.50;;;;;;5011790;28;20976;-76
2022/05/02 04:51:48;;;;;;;15.57;13.60;;;7.80;96.60;;;;;;5009695;28;20460;-77
2022/05/02 04:54:16;;;;;;;16.13;14.50;;;7.80;96.70;;;;;;4991783;28;20441;-76
2022/05/02 04:56:44;;;;;;;16.17;13.87;;;7.80;96.80;;;;;;4992181;28;20490;-76
2022/05/02 04:59:12;;;;;;;17.87;15.97;;;7.80;96.80;;;;;;4990917;28;20472;-76
2022/05/02 05:01:42;;;;;;;15.53;13.90;;;7.90;97.00;;;;;;4990505;28;20493;-76
2022/05/02 05:04:10;;;;;;;17.70;13.93;;;7.90;97.00;;;;;;5001614;28;20470;-77
2022/05/02 05:06:39;;;;;;;16.73;15.00;;;7.90;97.10;;;;;;4991994;28;20836;-76
2022/05/02 05:09:07;;;;;;;15.90;14.30;;;7.90;97.10;;;;;;4990787;28;20574;-76
2022/05/02 05:11:46;;;;;;;17.30;15.50;;;8.00;97.20;;;;;;4992230;28;20436;-77
2022/05/02 05:17:20;;;;;;;16.97;14.40;;;8.00;97.30;;;;;;4990749;28;20464;-77
2022/05/02 05:20:02;;;;;;;18.30;15.90;;;8.10;97.50;;;;;;5000323;28;20510;-77
2022/05/02 05:22:59;;;;;;;16.83;14.93;;;8.10;97.50;;;;;;5005753;28;20480;-76
2022/05/02 05:25:37;;;;;;;17.00;14.70;;;8.10;97.60;;;;;;4990789;28;20551;-76
2022/05/02 05:28:34;;;;;;;16.70;14.90;;;8.20;97.60;;;;;;5007691;28;20502;-76
2022/05/02 05:31:14;;;;;;;17.90;15.30;;;8.20;97.60;;;;;;4991765;28;20471;-76
2022/05/02 05:33:51;;;;;;;17.40;15.10;;;8.30;97.70;;;;;;4990270;28;20468;-76
2022/05/02 05:36:33;;;;;;;17.07;15.17;;;8.30;97.80;;;;;;4998050;28;21027;-76
2022/05/02 05:39:04;;;;;;;16.10;14.50;;;8.40;97.80;;;;;;4993418;28;20494;-76
2022/05/02 05:42:01;;;;;;;17.40;15.00;;;8.40;97.80;;;;;;4998489;28;20808;-76
2022/05/02 05:44:41;;;;;;;15.50;13.90;;;8.50;98.00;;;;;;5010987;28;20471;-76
2022/05/02 05:47:25;;;;;;;17.77;15.93;;;8.60;98.00;;;;;;5009851;28;20533;-77
2022/05/02 05:50:08;;;;;;;18.60;15.73;;;8.70;98.10;;;;;;4998838;28;20981;-76
2022/05/02 05:52:46;;;;;;;15.90;14.27;;;8.80;98.20;;;;;;4990270;28;20816;-76
2022/05/02 05:55:21;;;;;;;17.30;15.50;;;8.80;98.20;;;;;;4989973;28;20457;-76
2022/05/02 05:57:53;;;;;;;18.13;14.80;;;8.90;98.20;;;;;;4990250;28;20444;-76
2022/05/02 06:00:22;;;;;;;21.73;16.10;;;9.00;98.30;;;;;;4990143;28;20897;-76
2022/05/02 06:03:02;;;;;;;20.17;15.87;;;9.00;98.30;;;;;;4990001;28;20571;-77
2022/05/02 06:05:39;;;;;;;19.33;15.70;;;9.10;98.40;;;;;;5004135;28;20523;-76
2022/05/02 06:08:10;;;;;;;20.63;14.63;;;9.20;98.50;;;;;;5010422;28;21001;-76
2022/05/02 06:10:41;;;;;;;16.23;12.97;;;9.30;98.50;;;;;;5009464;28;20467;-77
2022/05/02 06:13:10;;;;;;;15.63;13.60;;;9.40;98.60;;;;;;4999733;28;20452;-76
2022/05/02 06:18:30;;;;;;;16.33;13.43;;;9.50;98.50;;;;;;4989812;28;20480;-77
2022/05/02 06:21:02;;;;;;;16.37;13.80;;;9.60;98.50;;;;;;4999183;28;20535;-77
2022/05/02 06:23:33;;;;;;;16.43;12.30;;;9.70;98.50;;;;;;5002147;28;20525;-77
2022/05/02 06:26:04;;;;;;;14.00;11.20;;;9.70;98.50;;;;;;5009350;28;20471;-77
2022/05/02 06:28:38;;;;;;;14.43;11.20;;;9.80;98.50;;;;;;4996656;28;20953;-76
2022/05/02 06:31:10;;;;;;;14.27;10.87;;;9.90;98.50;;;;;;5005284;28;20481;-76
2022/05/02 06:33:39;;;;;;;14.17;10.10;;;9.90;98.40;;;;;;5006443;28;20965;-77
2022/05/02 06:36:28;;;;;;;13.60;11.03;;;10.10;98.00;;;;;;4989618;28;20549;-77
2022/05/02 06:39:01;;;;;;;16.77;11.30;;;10.20;97.90;;;;;;4991213;28;20472;-77
2022/05/02 06:41:45;;;;;;;12.43;9.33;;;10.30;97.70;;;;;;4989475;28;20830;-77
2022/05/02 06:44:20;;;;;;;13.13;9.07;;;10.30;97.50;;;;;;5001105;28;20844;-77
2022/05/02 06:46:57;;;;;;;12.80;9.07;;;10.40;97.40;;;;;;5009302;28;20493;-77
2022/05/02 06:49:26;;;;;;;15.50;10.97;;;10.50;97.30;;;;;;5007632;28;20478;-77
2022/05/02 06:51:58;;;;;;;11.50;8.83;;;10.60;97.10;;;;;;4991079;28;20831;-77
2022/05/02 06:54:46;;;;;;;15.10;10.90;;;10.60;96.90;;;;;;4991206;28;20513;-77
2022/05/02 06:57:27;;;;;;;11.37;10.10;;;10.60;96.60;;;;;;4991274;28;20486;-77
2022/05/02 07:00:05;;;;;;;14.67;10.23;;;10.70;96.50;;;;;;4991162;28;20487;-77
2022/05/02 07:03:11;;;;;;;14.13;9.67;;;10.80;96.50;;;;;;4990291;28;21031;-77
2022/05/02 07:05:53;;;;;;;13.13;9.80;;;10.90;96.30;;;;;;5004150;28;20467;-77
2022/05/02 07:08:28;;;;;;;15.83;9.20;;;11.00;96.20;;;;;;5010885;28;20430;-77
2022/05/02 07:11:02;;;;;;;15.33;7.60;;;11.10;96.00;;;;;;5011237;28;20469;-77
2022/05/02 07:13:44;;;;;;;12.90;7.93;;;11.20;96.00;;;;;;5010586;28;20436;-77
2022/05/02 07:16:22;;;;;;;12.57;6.70;;;11.30;95.90;;;;;;4994093;28;20449;-78
2022/05/02 07:19:00;;;;;;;12.07;6.40;;;11.40;95.70;;;;;;4990390;28;20479;-78
2022/05/02 07:21:39;;;;;;;11.03;6.73;;;11.50;95.40;;;;;;4992161;28;20437;-78
2022/05/02 07:24:52;;;;;;;12.30;6.47;;;11.60;95.20;;;;;;5004798;28;20542;-78
2022/05/02 07:27:35;;;;;;;12.40;7.50;;;11.60;94.80;;;;;;5018739;28;20447;-79
2022/05/02 07:30:04;;;;;;;10.57;6.10;;;11.70;94.70;;;;;;5019819;28;20570;-79
2022/05/02 07:32:34;;;;;;;9.47;6.73;;;11.70;94.60;;;;;;5020672;28;20455;-78
2022/05/02 07:35:03;;;;;;;11.87;6.33;;;11.80;94.60;;;;;;5020151;28;20451;-78
2022/05/02 07:37:33;;;;;;;13.40;7.43;;;11.90;94.50;;;;;;5020521;28;20524;-78
2022/05/02 07:40:06;;;;;;;12.03;7.53;;;11.90;94.30;;;;;;5022582;28;20468;-78
2022/05/02 07:42:38;;;;;;;12.33;7.37;;;12.00;94.60;;;;;;5022563;28;20460;-79
2022/05/02 07:45:10;;;;;;;12.10;6.97;;;12.10;94.30;;;;;;5023697;28;20531;-79
2022/05/02 07:47:41;;;;;;;14.13;7.67;;;12.20;94.20;;;;;;5023593;28;20497;-79
2022/05/02 07:50:11;;;;;;;12.97;7.80;;;12.30;94.20;;;;;;5020454;28;20481;-79
2022/05/02 07:52:41;;;;;;;12.37;8.00;;;12.30;94.30;;;;;;5024987;28;20436;-79
2022/05/02 07:55:11;;;;;;;11.87;6.80;;;12.50;94.30;;;;;;5010082;28;20933;-79
2022/05/02 07:57:43;;;;;;;9.23;5.80;;;12.60;94.20;;;;;;5003744;28;20441;-79
2022/05/02 08:00:14;;;;;;;13.17;6.60;;;12.70;94.20;;;;;;5005979;28;20464;-79
2022/05/02 08:02:43;;;;;;;9.63;5.13;;;12.80;94.10;;;;;;5005826;28;20453;-79
2022/05/02 08:05:12;;;;;;;12.00;5.70;;;12.90;93.80;;;;;;4997072;28;20670;-78
2022/05/02 08:07:43;;;;;;;10.30;5.93;;;13.00;93.40;;;;;;4998829;28;20463;-79
2022/05/02 08:10:36;;;;;;;9.33;5.63;;;13.00;93.20;;;;;;5000341;28;20473;-78
2022/05/02 08:13:16;;;;;;;10.53;6.27;;;13.10;93.00;;;;;;5005254;28;20490;-79
2022/05/02 08:15:52;;;;;;;9.67;6.43;;;13.20;92.90;;;;;;5016637;28;20456;-79
2022/05/02 08:18:41;;;;;;;10.37;6.03;;;13.10;92.60;;;;;;5019684;28;20512;-78
2022/05/02 08:21:18;;;;;;;10.03;6.30;;;13.20;92.50;;;;;;5020322;28;20443;-78
2022/05/02 08:27:17;;;;;;;10.50;6.30;;;13.30;92.40;;;;;;5018381;28;20544;-79
2022/05/02 08:30:07;;;;;;;9.80;6.20;;;13.40;92.20;;;;;;5007286;28;20468;-79
2022/05/02 08:32:44;;;;;;;11.33;7.27;;;13.50;92.30;;;;;;5008494;28;21029;-79
2022/05/02 08:35:15;;;;;;;10.60;7.53;;;13.60;92.30;;;;;;5030035;28;20452;-79
2022/05/02 08:38:13;;;;;;;11.30;7.10;;;13.80;92.30;;;;;;5006242;28;20452;-79
2022/05/02 08:41:25;;;;;;;14.33;7.00;;;13.90;92.20;;;;;;5020076;28;20529;-79
2022/05/02 08:44:29;;;;;;;15.27;7.57;;;14.10;92.40;;;;;;4970118;28;20477;-78
2022/05/02 08:47:36;;;;;;;11.80;7.10;;;14.30;92.20;;;;;;5024634;28;20470;-79
2022/05/02 08:50:23;;;;;;;10.90;6.30;;;14.50;92.20;;;;;;5024310;28;20491;-79
2022/05/02 08:53:14;;;;;;;12.93;7.17;;;14.60;92.10;;;;;;5022306;28;20505;-79
2022/05/02 08:55:58;;;;;;;10.30;6.90;;;14.80;92.00;;;;;;5011896;28;20478;-79
2022/05/02 08:59:01;;;;;;;14.20;7.70;;;15.00;91.90;;;;;;5021176;28;20456;-79
2022/05/02 09:01:52;;;;;;;12.63;6.23;;;15.00;91.70;;;;;;5020075;28;20486;-78
2022/05/02 09:04:59;;;;;;;12.53;7.23;;;15.10;91.60;;;;;;5018521;28;20468;-79
2022/05/02 09:07:54;;;;;;;11.17;7.80;;;15.20;91.50;;;;;;5018298;28;20517;-79
2022/05/02 09:10:27;;;;;;;14.80;9.53;;;15.30;91.60;;;;;;5019409;28;20631;-79
2022/05/02 09:13:30;;;;;;;14.50;9.47;;;15.50;91.60;;;;;;5006062;28;20431;-79
2022/05/02 09:16:32;;;;;;;14.33;9.07;;;15.60;91.30;;;;;;4995600;28;20430;-79
2022/05/02 09:19:33;;;;;;;16.33;8.57;;;15.60;91.20;;;;;;5000439;28;20468;-79
2022/05/02 09:22:33;;;;;;;12.10;8.60;;;15.80;91.10;;;;;;4998479;28;20459;-79
2022/05/02 09:25:07;;;;;;;11.57;8.43;;;15.90;90.60;;;;;;5001699;28;20495;-79
2022/05/02 09:27:38;;;;;;;13.23;8.93;;;15.90;90.50;;;;;;5019393;28;20534;-79
2022/05/02 09:30:41;;;;;;;10.83;8.77;;;16.00;90.40;;;;;;5010441;28;20876;-79
2022/05/02 09:33:37;;;;;;;12.33;8.37;;;16.10;90.20;;;;;;5009099;28;20440;-78
2022/05/02 09:36:16;;;;;;;10.90;8.20;;;16.30;90.10;;;;;;5008368;28;20489;-79
2022/05/02 09:38:52;;;;;;;14.63;8.83;;;16.30;90.00;;;;;;5011671;28;20458;-80
2022/05/02 09:41:49;;;;;;;14.70;8.57;;;16.50;90.00;;;;;;5022998;28;20420;-80
2022/05/02 09:50:26;;;;;;;11.30;7.30;;;16.80;88.10;;;;;;5019462;28;20455;-80
2022/05/02 09:53:19;;;;;;;13.63;8.07;;;16.90;87.80;;;;;;5008955;28;20430;-79
2022/05/02 09:58:57;;;;;;;11.57;7.20;;;17.00;86.60;;;;;;5020448;28;20495;-80
2022/05/02 10:01:27;;;;;;;12.67;8.23;;;17.10;86.50;;;;;;5007916;28;20483;-80
2022/05/02 10:04:27;;;;;;;12.20;7.63;;;17.20;85.80;;;;;;4998635;28;20461;-80
2022/05/02 10:06:56;;;;;;;11.70;7.87;;;17.30;85.00;;;;;;4997497;28;20449;-81
2022/05/02 10:09:53;;;;;;;12.50;7.17;;;17.30;85.00;;;;;;5000317;28;21103;-80
2022/05/02 10:12:32;;;;;;;13.60;9.00;;;17.40;85.00;;;;;;5008393;28;20450;-80
2022/05/02 10:15:34;;;;;;;13.43;8.40;;;17.40;84.80;;;;;;4981777;28;20469;-80
2022/05/02 10:18:20;;;;;;;11.60;8.17;;;17.60;83.50;;;;;;4997277;28;20472;-80
2022/05/02 10:21:03;;;;;;;11.43;8.50;;;17.60;84.30;;;;;;5005385;28;20427;-81
2022/05/02 10:23:46;;;;;;;11.40;8.10;;;17.70;84.00;;;;;;5004110;28;20452;-81
2022/05/02 10:26:27;;;;;;;11.87;7.60;;;17.80;83.80;;;;;;5003103;28;20495;-80
2022/05/02 10:29:40;;;;;;;12.60;7.63;;;17.90;83.80;;;;;;5003250;28;20498;-81
2022/05/02 10:32:23;;;;;;;12.37;8.03;;;18.00;83.40;;;;;;4944675;29;20462;-81
2022/05/02 10:34:55;;;;;;;13.70;8.37;;;18.10;83.00;;;;;;4956504;29;20531;-80
2022/05/02 10:37:31;;;;;;;16.47;8.63;;;18.10;83.00;;;;;;4992618;28;20492;-80
2022/05/02 10:40:08;;;;;;;10.80;8.37;;;18.20;82.70;;;;;;5002547;28;20511;-81
2022/05/02 10:42:36;;;;;;;11.73;7.90;;;18.20;82.80;;;;;;5001336;28;20448;-80
2022/05/02 10:45:08;;;;;;;14.50;8.00;;;18.30;82.70;;;;;;5002078;28;20472;-80
2022/05/02 10:47:42;;;;;;;11.33;8.40;;;18.30;82.00;;;;;;5018283;28;20444;-80
2022/05/02 10:50:17;;;;;;;11.07;7.83;;;18.40;81.90;;;;;;5001433;28;20483;-81
2022/05/02 10:53:12;;;;;;;14.87;8.53;;;18.40;81.60;;;;;;5008274;28;20425;-81
2022/05/02 10:56:03;;;;;;;11.00;7.83;;;18.50;81.00;;;;;;5020926;28;20444;-80
2022/05/02 10:58:34;;;;;;;10.40;7.87;;;18.60;81.40;;;;;;5013373;28;20470;-80
2022/05/02 11:01:23;;;;;;;10.00;7.90;;;18.60;81.10;;;;;;5021155;28;20452;-80
2022/05/02 11:04:07;;;;;;;11.83;7.73;;;18.60;80.30;;;;;;4985894;28;20495;-80
2022/05/02 11:06:51;;;;;;;11.77;8.20;;;18.60;80.10;;;;;;4985928;28;20454;-80
2022/05/02 11:09:25;;;;;;;11.50;8.30;;;18.60;80.20;;;;;;5000516;28;20478;-80
2022/05/02 11:11:54;;;;;;;11.60;7.70;;;18.70;80.40;;;;;;4993631;28;20455;-80
2022/05/02 11:14:36;;;;;;;12.30;9.10;;;18.80;80.20;;;;;;5022388;28;20531;-80
2022/05/02 11:17:16;;;;;;;13.83;8.67;;;18.90;79.70;;;;;;5022687;28;20440;-80
2022/05/02 11:22:45;;;;;;;10.90;8.77;;;18.90;78.30;;;;;;5010442;28;20455;-80
2022/05/02 11:25:20;;;;;;;10.50;7.73;;;18.90;78.80;;;;;;5024646;28;20932;-79
2022/05/02 11:28:00;;;;;;;11.20;8.60;;;18.90;78.30;;;;;;5021755;28;20444;-80
2022/05/02 11:30:29;;;;;;;10.40;8.60;;;18.90;78.10;;;;;;5021449;28;20506;-79
2022/05/02 11:33:07;;;;;;;11.30;8.40;;;18.90;77.90;;;;;;5020486;28;20971;-79
2022/05/02 11:35:37;;;;;;;10.00;8.30;;;18.90;77.70;;;;;;5006266;28;20461;-79
2022/05/02 11:38:18;;;;;;;11.10;8.30;;;18.90;77.90;;;;;;5003046;28;20441;-79
2022/05/02 11:40:48;;;;;;;11.23;8.80;;;19.00;77.90;;;;;;5002394;28;20498;-79
2022/05/02 11:43:21;;;;;;;11.33;8.87;;;19.00;77.90;;;;;;5003000;28;20478;-79
2022/05/02 11:46:01;;;;;;;11.40;8.10;;;19.10;77.80;;;;;;5000023;28;20468;-80
2022/05/02 11:48:52;;;;;;;9.80;7.93;;;19.10;77.50;;;;;;5001536;28;20465;-79
2022/05/02 11:51:31;;;;;;;9.53;8.30;;;19.20;77.50;;;;;;5023206;28;20464;-80
2022/05/02 11:54:08;;;;;;;11.63;7.87;;;19.10;77.30;;;;;;5018264;28;20444;-79
2022/05/02 11:56:41;;;;;;;11.30;8.20;;;19.10;76.90;;;;;;5017620;28;20462;-79
2022/05/02 11:59:13;;;;;;;10.73;8.60;;;19.10;76.40;;;;;;5016728;28;20545;-79
2022/05/02 12:01:44;;;;;;;10.60;7.77;;;19.10;76.10;;;;;;5017038;28;20452;-79
2022/05/02 12:04:17;;;;;;;9.77;8.50;;;19.10;76.60;;;;;;5008640;28;20466;-79
2022/05/02 12:07:00;;;;;;;10.07;8.10;;;19.10;76.20;;;;;;5002936;28;21008;-79
2022/05/02 12:09:29;;;;;;;11.57;7.97;;;19.20;76.10;;;;;;5011777;28;20476;-79
2022/05/02 12:11:59;;;;;;;10.60;7.90;;;19.20;75.90;;;;;;5016590;28;20511;-78
2022/05/02 12:14:27;;;;;;;11.40;8.37;;;19.20;75.90;;;;;;5017053;28;20436;-78
2022/05/02 12:17:07;;;;;;;10.60;8.43;;;19.20;75.90;;;;;;5016408;28;20484;-78
2022/05/02 12:19:38;;;;;;;11.90;8.33;;;19.20;75.40;;;;;;5016178;28;20456;-78
2022/05/02 12:22:14;;;;;;;11.17;8.40;;;19.10;75.50;;;;;;5016383;28;20448;-79
2022/05/02 12:24:45;;;;;;;11.60;8.47;;;19.00;75.50;;;;;;5015882;28;20454;-78
2022/05/02 12:27:14;;;;;;;11.57;8.97;;;19.00;75.50;;;;;;4995719;28;20510;-78
2022/05/02 12:29:44;;;;;;;14.80;9.17;;;19.00;75.80;;;;;;4997595;28;20456;-78
2022/05/02 12:32:14;;;;;;;11.23;9.90;;;19.00;75.60;;;;;;4997283;28;20853;-79
2022/05/02 12:34:46;;;;;;;10.40;8.40;;;19.00;75.40;;;;;;4996050;28;20531;-78
2022/05/02 12:37:20;;;;;;;10.97;8.17;;;19.00;75.50;;;;;;4995121;28;20437;-78
2022/05/02 12:39:51;;;;;;;12.50;8.83;;;18.90;75.30;;;;;;4998015;28;20856;-79
2022/05/02 12:42:26;;;;;;;13.13;9.30;;;18.80;75.40;;;;;;5014881;28;20488;-79
2022/05/02 12:45:01;;;;;;;15.67;9.50;;;18.70;75.50;;;;;;4999689;28;20441;-79
2022/05/02 12:47:34;;;;;;;10.47;8.70;;;18.70;75.70;;;;;;5005306;28;20989;-79
2022/05/02 12:50:06;;;;;;;11.20;9.00;;;18.70;75.60;;;;;;5015251;28;20468;-78
2022/05/02 12:52:42;;;;;;;10.73;9.50;;;18.70;75.40;;;;;;5015526;28;20444;-79
2022/05/02 12:55:12;;;;;;;11.77;9.53;;;18.80;75.40;;;;;;5015647;28;20479;-79
2022/05/02 13:00:39;;;;;;;11.83;8.60;;;18.80;75.90;;;;;;5013839;28;20489;-78
2022/05/02 13:03:22;;;;;;;11.03;9.23;;;18.90;75.80;;;;;;5013730;28;20440;-78
2022/05/02 13:06:04;;;;;;;12.60;9.77;;;18.90;75.40;;;;;;5016209;28;20487;-78
2022/05/02 13:08:34;;;;;;;11.33;9.20;;;18.80;75.40;;;;;;5014013;28;20483;-78
2022/05/02 13:11:08;;;;;;;10.93;9.33;;;18.80;75.50;;;;;;5007666;28;20460;-78
2022/05/02 13:13:43;;;;;;;12.10;8.30;;;18.80;75.30;;;;;;5007601;28;20457;-77
2022/05/02 13:16:22;;;;;;;11.53;9.60;;;18.70;75.30;;;;;;4990785;28;20502;-77
2022/05/02 13:18:51;;;;;;;11.07;9.53;;;18.70;75.40;;;;;;5007171;28;20478;-77
2022/05/02 13:21:21;;;;;;;13.13;9.37;;;18.60;75.60;;;;;;4990359;28;20467;-77
2022/05/02 13:23:51;;;;;;;21.73;9.97;;;18.60;75.90;;;;;;4990736;28;20950;-77
2022/05/02 13:26:41;;;;;;;12.50;9.30;;;18.60;75.70;;;;;;4992691;28;20451;-77
2022/05/02 13:29:13;;;;;;;11.33;9.37;;;18.60;75.70;;;;;;5008024;28;20637;-77
2022/05/02 13:31:48;;;;;;;12.70;9.03;;;18.60;75.90;;;;;;5009948;28;20467;-77
2022/05/02 13:34:29;;;;;;;13.10;9.63;;;18.70;75.80;;;;;;5007436;28;20513;-77
2022/05/02 13:37:14;;;;;;;10.70;9.10;;;18.70;75.60;;;;;;4991912;28;20451;-77
2022/05/02 13:39:51;;;;;;;12.07;8.70;;;18.70;75.60;;;;;;4990628;28;20464;-77
2022/05/02 13:42:49;;;;;;;11.43;8.93;;;18.70;75.90;;;;;;4991767;28;20429;-77
2022/05/02 13:45:29;;;;;;;12.10;9.70;;;18.90;75.90;;;;;;4991732;28;20907;-77
2022/05/02 13:48:14;;;;;;;10.73;8.60;;;18.90;75.80;;;;;;4995955;28;20472;-77